sensor_id;sensor_type;location;lat;lon;timestamp;P1;durP1;ratioP1;P2;durP2;ratioP2
19735;SDS011;32064;49.310;8.646;2022-08-14T00:02:24;2.30;;;2.10;;
19735;SDS011;32064;49.310;8.646;2022-08-14T00:04:50;3.13;;;2.35;;
19735;SDS011;32064;49.310;8.646;2022-08-14T00:07:16;2.33;;;2.13;;
19735;SDS011;32064;49.310;8.646;2022-08-14T00:09:42;2.45;;;1.90;;
19735;SDS011;32064;49.310;8.646;2022-08-14T00:12:08;2.05;;;1.85;;
19735;SDS011;32064;49.310;8.646;2022-08-14T00:14:34;2.67;;;1.92;;
19735;SDS011;32064;49.310;8.646;2022-08-14T00:17:00;3.70;;;2.00;;
19735;SDS011;32064;49.310;8.646;2022-08-14T00:19:25;2.15;;;1.95;;
19735;SDS011;32064;49.310;8.646;2022-08-14T00:21:50;2.22;;;1.95;;
19735;SDS011;32064;49.310;8.646;2022-08-14T00:24:17;2.95;;;1.75;;
19735;SDS011;32064;49.310;8.646;2022-08-14T00:26:44;1.90;;;1.80;;
19735;SDS011;32064;49.310;8.646;2022-08-14T00:29:09;3.38;;;2.05;;
19735;SDS011;32064;49.310;8.646;2022-08-14T00:31:35;3.50;;;1.90;;
19735;SDS011;32064;49.310;8.646;2022-08-14T00:34:00;3.45;;;2.45;;
19735;SDS011;32064;49.310;8.646;2022-08-14T00:36:26;3.58;;;2.10;;
19735;SDS011;32064;49.310;8.646;2022-08-14T00:38:51;8.05;;;2.05;;
19735;SDS011;32064;49.310;8.646;2022-08-14T00:41:17;1.73;;;1.63;;
19735;SDS011;32064;49.310;8.646;2022-08-14T00:43:43;2.95;;;1.98;;
19735;SDS011;32064;49.310;8.646;2022-08-14T00:46:09;2.03;;;1.90;;
19735;SDS011;32064;49.310;8.646;2022-08-14T00:48:35;1.85;;;1.63;;
19735;SDS011;32064;49.310;8.646;2022-08-14T00:51:02;2.40;;;2.20;;
19735;SDS011;32064;49.310;8.646;2022-08-14T00:53:29;1.92;;;1.83;;
19735;SDS011;32064;49.310;8.646;2022-08-14T00:55:55;1.80;;;1.70;;
19735;SDS011;32064;49.310;8.646;2022-08-14T00:58:22;2.20;;;2.00;;
19735;SDS011;32064;49.310;8.646;2022-08-14T01:00:57;2.35;;;2.15;;
19735;SDS011;32064;49.310;8.646;2022-08-14T01:03:24;2.30;;;2.10;;
19735;SDS011;32064;49.310;8.646;2022-08-14T01:05:53;3.85;;;1.90;;
19735;SDS011;32064;49.310;8.646;2022-08-14T01:08:24;2.53;;;2.10;;
19735;SDS011;32064;49.310;8.646;2022-08-14T01:10:52;2.33;;;2.03;;
19735;SDS011;32064;49.310;8.646;2022-08-14T01:13:23;4.43;;;2.20;;
19735;SDS011;32064;49.310;8.646;2022-08-14T01:15:55;2.58;;;2.30;;
19735;SDS011;32064;49.310;8.646;2022-08-14T01:18:22;2.13;;;1.92;;
19735;SDS011;32064;49.310;8.646;2022-08-14T01:21:07;2.75;;;2.03;;
19735;SDS011;32064;49.310;8.646;2022-08-14T01:23:40;3.13;;;2.15;;
19735;SDS011;32064;49.310;8.646;2022-08-14T01:26:07;3.83;;;1.85;;
19735;SDS011;32064;49.310;8.646;2022-08-14T01:28:33;2.58;;;2.38;;
19735;SDS011;32064;49.310;8.646;2022-08-14T01:31:02;2.95;;;2.22;;
19735;SDS011;32064;49.310;8.646;2022-08-14T01:33:30;3.97;;;2.30;;
19735;SDS011;32064;49.310;8.646;2022-08-14T01:35:56;2.90;;;2.22;;
19735;SDS011;32064;49.310;8.646;2022-08-14T01:38:24;2.72;;;2.40;;
19735;SDS011;32064;49.310;8.646;2022-08-14T01:40:55;2.17;;;2.00;;
19735;SDS011;32064;49.310;8.646;2022-08-14T01:43:21;2.63;;;2.13;;
19735;SDS011;32064;49.310;8.646;2022-08-14T01:45:47;3.65;;;2.40;;
19735;SDS011;32064;49.310;8.646;2022-08-14T01:48:17;2.42;;;2.20;;
19735;SDS011;32064;49.310;8.646;2022-08-14T01:50:43;2.50;;;2.30;;
19735;SDS011;32064;49.310;8.646;2022-08-14T01:53:09;2.40;;;2.20;;
19735;SDS011;32064;49.310;8.646;2022-08-14T01:55:35;5.47;;;2.30;;
19735;SDS011;32064;49.310;8.646;2022-08-14T01:58:00;2.55;;;2.20;;
19735;SDS011;32064;49.310;8.646;2022-08-14T02:00:27;2.83;;;2.60;;
19735;SDS011;32064;49.310;8.646;2022-08-14T02:02:54;7.45;;;2.30;;
19735;SDS011;32064;49.310;8.646;2022-08-14T02:05:20;2.70;;;2.38;;
19735;SDS011;32064;49.310;8.646;2022-08-14T02:07:54;2.72;;;2.47;;
19735;SDS011;32064;49.310;8.646;2022-08-14T02:10:20;2.28;;;2.08;;
19735;SDS011;32064;49.310;8.646;2022-08-14T02:12:46;2.40;;;2.20;;
19735;SDS011;32064;49.310;8.646;2022-08-14T02:15:11;5.15;;;2.10;;
19735;SDS011;32064;49.310;8.646;2022-08-14T02:17:36;2.60;;;2.40;;
19735;SDS011;32064;49.310;8.646;2022-08-14T02:20:03;4.75;;;2.33;;
19735;SDS011;32064;49.310;8.646;2022-08-14T02:22:31;2.70;;;2.45;;
19735;SDS011;32064;49.310;8.646;2022-08-14T02:24:57;2.72;;;2.53;;
19735;SDS011;32064;49.310;8.646;2022-08-14T02:27:22;2.22;;;2.00;;
19735;SDS011;32064;49.310;8.646;2022-08-14T02:29:48;2.45;;;2.25;;
19735;SDS011;32064;49.310;8.646;2022-08-14T02:32:13;2.83;;;2.63;;
19735;SDS011;32064;49.310;8.646;2022-08-14T02:34:40;2.42;;;2.22;;
19735;SDS011;32064;49.310;8.646;2022-08-14T02:37:08;2.67;;;2.35;;
19735;SDS011;32064;49.310;8.646;2022-08-14T02:39:37;3.20;;;2.40;;
19735;SDS011;32064;49.310;8.646;2022-08-14T02:42:08;2.40;;;2.20;;
19735;SDS011;32064;49.310;8.646;2022-08-14T02:44:37;3.13;;;2.08;;
19735;SDS011;32064;49.310;8.646;2022-08-14T02:47:03;3.53;;;2.70;;
19735;SDS011;32064;49.310;8.646;2022-08-14T02:49:29;5.10;;;2.60;;
19735;SDS011;32064;49.310;8.646;2022-08-14T02:51:55;2.60;;;2.40;;
19735;SDS011;32064;49.310;8.646;2022-08-14T02:54:22;3.58;;;2.55;;
19735;SDS011;32064;49.310;8.646;2022-08-14T02:56:52;3.65;;;2.47;;
19735;SDS011;32064;49.310;8.646;2022-08-14T02:59:20;7.38;;;2.65;;
19735;SDS011;32064;49.310;8.646;2022-08-14T03:01:47;3.33;;;2.50;;
19735;SDS011;32064;49.310;8.646;2022-08-14T03:04:13;3.47;;;2.53;;
19735;SDS011;32064;49.310;8.646;2022-08-14T03:06:39;2.55;;;2.35;;
19735;SDS011;32064;49.310;8.646;2022-08-14T03:09:07;2.95;;;2.75;;
19735;SDS011;32064;49.310;8.646;2022-08-14T03:11:35;3.60;;;2.60;;
19735;SDS011;32064;49.310;8.646;2022-08-14T03:14:01;2.80;;;2.60;;
19735;SDS011;32064;49.310;8.646;2022-08-14T03:16:27;5.03;;;2.72;;
19735;SDS011;32064;49.310;8.646;2022-08-14T03:18:59;4.57;;;2.58;;
19735;SDS011;32064;49.310;8.646;2022-08-14T03:21:25;2.50;;;2.30;;
19735;SDS011;32064;49.310;8.646;2022-08-14T03:23:52;3.03;;;2.70;;
19735;SDS011;32064;49.310;8.646;2022-08-14T03:26:43;2.78;;;2.53;;
19735;SDS011;32064;49.310;8.646;2022-08-14T03:29:11;2.90;;;2.33;;
19735;SDS011;32064;49.310;8.646;2022-08-14T03:31:38;3.08;;;2.53;;
19735;SDS011;32064;49.310;8.646;2022-08-14T03:34:08;3.00;;;2.70;;
19735;SDS011;32064;49.310;8.646;2022-08-14T03:36:35;3.03;;;2.47;;
19735;SDS011;32064;49.310;8.646;2022-08-14T03:39:05;4.45;;;2.92;;
19735;SDS011;32064;49.310;8.646;2022-08-14T03:41:32;3.05;;;2.75;;
19735;SDS011;32064;49.310;8.646;2022-08-14T03:43:59;3.05;;;2.40;;
19735;SDS011;32064;49.310;8.646;2022-08-14T03:46:31;2.88;;;2.40;;
19735;SDS011;32064;49.310;8.646;2022-08-14T03:48:58;3.13;;;2.63;;
19735;SDS011;32064;49.310;8.646;2022-08-14T03:51:25;2.67;;;2.47;;
19735;SDS011;32064;49.310;8.646;2022-08-14T03:53:53;2.50;;;2.30;;
19735;SDS011;32064;49.310;8.646;2022-08-14T03:56:21;2.80;;;2.58;;
19735;SDS011;32064;49.310;8.646;2022-08-14T03:58:47;5.07;;;2.63;;
19735;SDS011;32064;49.310;8.646;2022-08-14T04:01:17;2.90;;;2.42;;
19735;SDS011;32064;49.310;8.646;2022-08-14T04:03:46;3.75;;;2.70;;
19735;SDS011;32064;49.310;8.646;2022-08-14T04:06:13;5.85;;;2.90;;
19735;SDS011;32064;49.310;8.646;2022-08-14T04:08:39;5.88;;;2.60;;
19735;SDS011;32064;49.310;8.646;2022-08-14T04:11:05;4.53;;;2.65;;
19735;SDS011;32064;49.310;8.646;2022-08-14T04:13:33;2.63;;;2.40;;
19735;SDS011;32064;49.310;8.646;2022-08-14T04:16:02;2.50;;;2.00;;
19735;SDS011;32064;49.310;8.646;2022-08-14T04:18:33;2.65;;;2.10;;
19735;SDS011;32064;49.310;8.646;2022-08-14T04:21:03;5.13;;;2.53;;
19735;SDS011;32064;49.310;8.646;2022-08-14T04:23:30;2.78;;;2.42;;
19735;SDS011;32064;49.310;8.646;2022-08-14T04:25:56;3.15;;;2.55;;
19735;SDS011;32064;49.310;8.646;2022-08-14T04:28:22;4.47;;;2.60;;
19735;SDS011;32064;49.310;8.646;2022-08-14T04:30:49;3.60;;;2.60;;
19735;SDS011;32064;49.310;8.646;2022-08-14T04:33:14;2.50;;;2.30;;
19735;SDS011;32064;49.310;8.646;2022-08-14T04:35:40;3.17;;;2.88;;
19735;SDS011;32064;49.310;8.646;2022-08-14T04:38:06;2.72;;;2.53;;
19735;SDS011;32064;49.310;8.646;2022-08-14T04:40:51;3.10;;;2.33;;
19735;SDS011;32064;49.310;8.646;2022-08-14T04:43:36;2.63;;;2.40;;
19735;SDS011;32064;49.310;8.646;2022-08-14T04:46:14;2.72;;;2.53;;
19735;SDS011;32064;49.310;8.646;2022-08-14T04:48:41;3.47;;;2.80;;
19735;SDS011;32064;49.310;8.646;2022-08-14T04:51:08;2.67;;;2.47;;
19735;SDS011;32064;49.310;8.646;2022-08-14T04:53:35;2.92;;;2.50;;
19735;SDS011;32064;49.310;8.646;2022-08-14T04:56:03;2.75;;;2.40;;
19735;SDS011;32064;49.310;8.646;2022-08-14T04:58:30;2.83;;;2.47;;
19735;SDS011;32064;49.310;8.646;2022-08-14T05:00:57;3.22;;;2.85;;
19735;SDS011;32064;49.310;8.646;2022-08-14T05:03:24;2.58;;;2.30;;
19735;SDS011;32064;49.310;8.646;2022-08-14T05:05:53;2.70;;;2.50;;
19735;SDS011;32064;49.310;8.646;2022-08-14T05:08:20;3.78;;;2.45;;
19735;SDS011;32064;49.310;8.646;2022-08-14T05:10:52;2.92;;;2.63;;
19735;SDS011;32064;49.310;8.646;2022-08-14T05:13:19;3.72;;;2.72;;
19735;SDS011;32064;49.310;8.646;2022-08-14T05:15:46;2.53;;;2.33;;
19735;SDS011;32064;49.310;8.646;2022-08-14T05:18:13;2.90;;;2.60;;
19735;SDS011;32064;49.310;8.646;2022-08-14T05:20:48;4.65;;;2.58;;
19735;SDS011;32064;49.310;8.646;2022-08-14T05:23:16;3.45;;;2.40;;
19735;SDS011;32064;49.310;8.646;2022-08-14T05:25:44;2.53;;;2.33;;
19735;SDS011;32064;49.310;8.646;2022-08-14T05:28:18;3.40;;;3.10;;
19735;SDS011;32064;49.310;8.646;2022-08-14T05:30:46;2.70;;;2.50;;
19735;SDS011;32064;49.310;8.646;2022-08-14T05:33:16;3.63;;;2.70;;
19735;SDS011;32064;49.310;8.646;2022-08-14T05:35:44;2.65;;;2.45;;
19735;SDS011;32064;49.310;8.646;2022-08-14T05:38:11;2.70;;;2.50;;
19735;SDS011;32064;49.310;8.646;2022-08-14T05:40:44;5.55;;;2.78;;
19735;SDS011;32064;49.310;8.646;2022-08-14T05:43:11;2.70;;;2.50;;
19735;SDS011;32064;49.310;8.646;2022-08-14T05:45:37;5.38;;;2.65;;
19735;SDS011;32064;49.310;8.646;2022-08-14T05:48:03;5.28;;;2.72;;
19735;SDS011;32064;49.310;8.646;2022-08-14T05:50:30;3.63;;;2.75;;
19735;SDS011;32064;49.310;8.646;2022-08-14T05:52:56;4.35;;;2.70;;
19735;SDS011;32064;49.310;8.646;2022-08-14T05:55:22;2.90;;;2.67;;
19735;SDS011;32064;49.310;8.646;2022-08-14T06:00:19;4.45;;;3.00;;
19735;SDS011;32064;49.310;8.646;2022-08-14T06:02:46;2.92;;;2.63;;
19735;SDS011;32064;49.310;8.646;2022-08-14T06:05:11;3.92;;;2.30;;
19735;SDS011;32064;49.310;8.646;2022-08-14T06:07:37;4.32;;;2.50;;
19735;SDS011;32064;49.310;8.646;2022-08-14T06:10:03;3.70;;;2.80;;
19735;SDS011;32064;49.310;8.646;2022-08-14T06:12:31;3.75;;;3.35;;
19735;SDS011;32064;49.310;8.646;2022-08-14T06:14:57;3.13;;;2.72;;
19735;SDS011;32064;49.310;8.646;2022-08-14T06:17:23;2.72;;;2.53;;
19735;SDS011;32064;49.310;8.646;2022-08-14T06:19:49;3.38;;;3.08;;
19735;SDS011;32064;49.310;8.646;2022-08-14T06:22:14;3.45;;;3.10;;
19735;SDS011;32064;49.310;8.646;2022-08-14T06:24:39;3.58;;;3.15;;
19735;SDS011;32064;49.310;8.646;2022-08-14T06:27:05;3.90;;;3.13;;
19735;SDS011;32064;49.310;8.646;2022-08-14T06:29:31;3.25;;;2.50;;
19735;SDS011;32064;49.310;8.646;2022-08-14T06:31:57;2.95;;;2.60;;
19735;SDS011;32064;49.310;8.646;2022-08-14T06:34:22;2.83;;;2.47;;
19735;SDS011;32064;49.310;8.646;2022-08-14T06:36:48;2.95;;;2.72;;
19735;SDS011;32064;49.310;8.646;2022-08-14T06:39:13;3.88;;;3.10;;
19735;SDS011;32064;49.310;8.646;2022-08-14T06:41:39;3.00;;;2.80;;
19735;SDS011;32064;49.310;8.646;2022-08-14T06:44:06;3.60;;;3.25;;
19735;SDS011;32064;49.310;8.646;2022-08-14T06:46:34;3.30;;;2.72;;
19735;SDS011;32064;49.310;8.646;2022-08-14T06:49:00;3.83;;;2.70;;
19735;SDS011;32064;49.310;8.646;2022-08-14T06:51:26;3.17;;;2.88;;
19735;SDS011;32064;49.310;8.646;2022-08-14T06:53:52;2.70;;;2.50;;
19735;SDS011;32064;49.310;8.646;2022-08-14T06:56:17;2.72;;;2.50;;
19735;SDS011;32064;49.310;8.646;2022-08-14T06:58:43;3.28;;;2.97;;
19735;SDS011;32064;49.310;8.646;2022-08-14T07:01:08;3.72;;;2.97;;
19735;SDS011;32064;49.310;8.646;2022-08-14T07:03:52;2.63;;;2.42;;
19735;SDS011;32064;49.310;8.646;2022-08-14T07:06:36;2.70;;;2.50;;
19735;SDS011;32064;49.310;8.646;2022-08-14T07:09:02;2.60;;;2.40;;
19735;SDS011;32064;49.310;8.646;2022-08-14T07:11:29;2.80;;;2.60;;
19735;SDS011;32064;49.310;8.646;2022-08-14T07:13:54;2.72;;;2.50;;
19735;SDS011;32064;49.310;8.646;2022-08-14T07:16:20;2.35;;;2.15;;
19735;SDS011;32064;49.310;8.646;2022-08-14T07:18:45;2.70;;;2.47;;
19735;SDS011;32064;49.310;8.646;2022-08-14T07:21:10;2.75;;;2.55;;
19735;SDS011;32064;49.310;8.646;2022-08-14T07:23:36;2.53;;;2.33;;
19735;SDS011;32064;49.310;8.646;2022-08-14T07:26:02;2.25;;;2.05;;
19735;SDS011;32064;49.310;8.646;2022-08-14T07:28:30;2.85;;;2.65;;
19735;SDS011;32064;49.310;8.646;2022-08-14T07:31:01;2.70;;;2.50;;
19735;SDS011;32064;49.310;8.646;2022-08-14T07:33:30;2.25;;;2.08;;
19735;SDS011;32064;49.310;8.646;2022-08-14T07:35:59;3.00;;;2.70;;
19735;SDS011;32064;49.310;8.646;2022-08-14T07:38:28;7.40;;;2.28;;
19735;SDS011;32064;49.310;8.646;2022-08-14T07:40:53;2.97;;;2.42;;
19735;SDS011;32064;49.310;8.646;2022-08-14T07:43:19;2.75;;;2.50;;
19735;SDS011;32064;49.310;8.646;2022-08-14T07:45:45;2.70;;;2.45;;
19735;SDS011;32064;49.310;8.646;2022-08-14T07:48:11;2.88;;;2.60;;
19735;SDS011;32064;49.310;8.646;2022-08-14T07:50:37;2.80;;;2.60;;
19735;SDS011;32064;49.310;8.646;2022-08-14T07:53:03;2.75;;;2.20;;
19735;SDS011;32064;49.310;8.646;2022-08-14T07:55:30;2.63;;;2.42;;
19735;SDS011;32064;49.310;8.646;2022-08-14T07:57:56;2.65;;;2.45;;
19735;SDS011;32064;49.310;8.646;2022-08-14T08:00:23;2.30;;;2.10;;
19735;SDS011;32064;49.310;8.646;2022-08-14T08:02:50;3.72;;;2.25;;
19735;SDS011;32064;49.310;8.646;2022-08-14T08:05:19;3.75;;;2.80;;
19735;SDS011;32064;49.310;8.646;2022-08-14T08:07:46;3.53;;;2.40;;
19735;SDS011;32064;49.310;8.646;2022-08-14T08:10:22;3.88;;;2.40;;
19735;SDS011;32064;49.310;8.646;2022-08-14T08:12:59;2.58;;;2.38;;
19735;SDS011;32064;49.310;8.646;2022-08-14T08:15:29;2.85;;;2.53;;
19735;SDS011;32064;49.310;8.646;2022-08-14T08:17:56;2.65;;;2.40;;
19735;SDS011;32064;49.310;8.646;2022-08-14T08:20:23;4.35;;;2.25;;
19735;SDS011;32064;49.310;8.646;2022-08-14T08:22:51;2.65;;;2.40;;
19735;SDS011;32064;49.310;8.646;2022-08-14T08:25:18;3.03;;;2.40;;
19735;SDS011;32064;49.310;8.646;2022-08-14T08:27:56;2.60;;;2.40;;
19735;SDS011;32064;49.310;8.646;2022-08-14T08:30:24;2.33;;;1.83;;
19735;SDS011;32064;49.310;8.646;2022-08-14T08:32:50;2.30;;;2.10;;
19735;SDS011;32064;49.310;8.646;2022-08-14T08:35:21;1.88;;;1.77;;
19735;SDS011;32064;49.310;8.646;2022-08-14T08:37:48;2.22;;;2.03;;
19735;SDS011;32064;49.310;8.646;2022-08-14T08:40:26;7.30;;;2.35;;
19735;SDS011;32064;49.310;8.646;2022-08-14T08:42:59;2.08;;;1.85;;
19735;SDS011;32064;49.310;8.646;2022-08-14T08:45:25;3.85;;;1.88;;
19735;SDS011;32064;49.310;8.646;2022-08-14T08:47:51;3.40;;;1.98;;
19735;SDS011;32064;49.310;8.646;2022-08-14T08:52:50;2.95;;;1.95;;
19735;SDS011;32064;49.310;8.646;2022-08-14T08:55:30;4.00;;;1.88;;
19735;SDS011;32064;49.310;8.646;2022-08-14T08:58:02;2.63;;;2.05;;
19735;SDS011;32064;49.310;8.646;2022-08-14T09:00:30;2.33;;;1.90;;
19735;SDS011;32064;49.310;8.646;2022-08-14T09:03:03;1.80;;;1.70;;
19735;SDS011;32064;49.310;8.646;2022-08-14T09:05:34;2.38;;;1.92;;
19735;SDS011;32064;49.310;8.646;2022-08-14T09:08:12;2.25;;;1.83;;
19735;SDS011;32064;49.310;8.646;2022-08-14T09:10:39;2.10;;;2.00;;
19735;SDS011;32064;49.310;8.646;2022-08-14T09:13:05;1.88;;;1.73;;
19735;SDS011;32064;49.310;8.646;2022-08-14T09:15:31;1.60;;;1.50;;
19735;SDS011;32064;49.310;8.646;2022-08-14T09:17:56;2.97;;;1.60;;
19735;SDS011;32064;49.310;8.646;2022-08-14T09:20:23;2.05;;;1.80;;
19735;SDS011;32064;49.310;8.646;2022-08-14T09:22:49;2.08;;;1.60;;
19735;SDS011;32064;49.310;8.646;2022-08-14T09:25:16;3.78;;;1.88;;
19735;SDS011;32064;49.310;8.646;2022-08-14T09:27:42;4.65;;;1.70;;
19735;SDS011;32064;49.310;8.646;2022-08-14T09:30:10;1.58;;;1.48;;
19735;SDS011;32064;49.310;8.646;2022-08-14T09:32:52;1.83;;;1.73;;
19735;SDS011;32064;49.310;8.646;2022-08-14T09:46:54;1.42;;;1.33;;
19735;SDS011;32064;49.310;8.646;2022-08-14T09:49:34;1.95;;;1.42;;
19735;SDS011;32064;49.310;8.646;2022-08-14T09:52:10;1.70;;;1.55;;
19735;SDS011;32064;49.310;8.646;2022-08-14T09:54:47;3.92;;;1.40;;
19735;SDS011;32064;49.310;8.646;2022-08-14T09:57:26;1.50;;;1.40;;
19735;SDS011;32064;49.310;8.646;2022-08-14T09:59:52;1.42;;;1.33;;
19735;SDS011;32064;49.310;8.646;2022-08-14T10:02:19;2.90;;;1.65;;
19735;SDS011;32064;49.310;8.646;2022-08-14T10:05:04;1.70;;;1.60;;
19735;SDS011;32064;49.310;8.646;2022-08-14T10:07:33;1.42;;;1.27;;
19735;SDS011;32064;49.310;8.646;2022-08-14T10:10:01;1.50;;;1.40;;
19735;SDS011;32064;49.310;8.646;2022-08-14T10:15:16;1.35;;;1.10;;
19735;SDS011;32064;49.310;8.646;2022-08-14T10:17:43;4.40;;;1.40;;
19735;SDS011;32064;49.310;8.646;2022-08-14T10:20:10;2.45;;;1.60;;
19735;SDS011;32064;49.310;8.646;2022-08-14T10:22:36;1.40;;;1.30;;
19735;SDS011;32064;49.310;8.646;2022-08-14T10:25:12;4.22;;;1.50;;
19735;SDS011;32064;49.310;8.646;2022-08-14T10:27:40;2.15;;;1.30;;
19735;SDS011;32064;49.310;8.646;2022-08-14T10:30:13;1.25;;;1.15;;
19735;SDS011;32064;49.310;8.646;2022-08-14T10:32:44;1.45;;;1.35;;
19735;SDS011;32064;49.310;8.646;2022-08-14T10:35:10;3.25;;;1.27;;
19735;SDS011;32064;49.310;8.646;2022-08-14T10:37:38;1.35;;;1.25;;
19735;SDS011;32064;49.310;8.646;2022-08-14T10:40:10;1.23;;;1.13;;
19735;SDS011;32064;49.310;8.646;2022-08-14T10:42:39;2.95;;;1.45;;
19735;SDS011;32064;49.310;8.646;2022-08-14T10:45:15;1.38;;;1.27;;
19735;SDS011;32064;49.310;8.646;2022-08-14T10:47:46;1.42;;;1.33;;
19735;SDS011;32064;49.310;8.646;2022-08-14T10:50:13;1.20;;;1.10;;
19735;SDS011;32064;49.310;8.646;2022-08-14T10:52:40;1.40;;;1.30;;
19735;SDS011;32064;49.310;8.646;2022-08-14T10:57:34;1.20;;;1.10;;
19735;SDS011;32064;49.310;8.646;2022-08-14T11:00:18;1.20;;;1.10;;
19735;SDS011;32064;49.310;8.646;2022-08-14T11:02:55;1.88;;;1.45;;
19735;SDS011;32064;49.310;8.646;2022-08-14T11:05:25;3.75;;;1.15;;
19735;SDS011;32064;49.310;8.646;2022-08-14T11:10:19;1.25;;;1.15;;
19735;SDS011;32064;49.310;8.646;2022-08-14T11:12:51;2.47;;;1.42;;
19735;SDS011;32064;49.310;8.646;2022-08-14T11:15:25;1.35;;;1.20;;
19735;SDS011;32064;49.310;8.646;2022-08-14T11:17:52;3.03;;;1.30;;
19735;SDS011;32064;49.310;8.646;2022-08-14T11:20:21;1.35;;;1.25;;
19735;SDS011;32064;49.310;8.646;2022-08-14T11:22:50;1.60;;;1.25;;
19735;SDS011;32064;49.310;8.646;2022-08-14T11:25:18;1.65;;;1.55;;
19735;SDS011;32064;49.310;8.646;2022-08-14T11:27:47;1.55;;;1.45;;
19735;SDS011;32064;49.310;8.646;2022-08-14T11:30:16;1.33;;;1.20;;
19735;SDS011;32064;49.310;8.646;2022-08-14T11:32:44;1.88;;;1.38;;
19735;SDS011;32064;49.310;8.646;2022-08-14T11:35:16;2.38;;;1.42;;
19735;SDS011;32064;49.310;8.646;2022-08-14T11:37:57;3.75;;;1.58;;
19735;SDS011;32064;49.310;8.646;2022-08-14T11:40:30;2.88;;;1.35;;
19735;SDS011;32064;49.310;8.646;2022-08-14T11:42:59;1.75;;;1.45;;
19735;SDS011;32064;49.310;8.646;2022-08-14T11:45:27;1.70;;;1.60;;
19735;SDS011;32064;49.310;8.646;2022-08-14T11:47:58;1.60;;;1.50;;
19735;SDS011;32064;49.310;8.646;2022-08-14T11:50:38;2.38;;;1.80;;
19735;SDS011;32064;49.310;8.646;2022-08-14T11:53:05;1.52;;;1.33;;
19735;SDS011;32064;49.310;8.646;2022-08-14T11:55:35;1.90;;;1.77;;
19735;SDS011;32064;49.310;8.646;2022-08-14T11:58:06;1.42;;;1.33;;
19735;SDS011;32064;49.310;8.646;2022-08-14T12:00:44;3.83;;;1.40;;
19735;SDS011;32064;49.310;8.646;2022-08-14T12:03:10;1.67;;;1.50;;
19735;SDS011;32064;49.310;8.646;2022-08-14T12:05:38;1.73;;;1.63;;
19735;SDS011;32064;49.310;8.646;2022-08-14T12:08:06;1.65;;;1.42;;
19735;SDS011;32064;49.310;8.646;2022-08-14T12:10:34;1.73;;;1.63;;
19735;SDS011;32064;49.310;8.646;2022-08-14T12:13:11;1.58;;;1.48;;
19735;SDS011;32064;49.310;8.646;2022-08-14T12:15:38;1.55;;;1.45;;
19735;SDS011;32064;49.310;8.646;2022-08-14T12:18:04;1.50;;;1.40;;
19735;SDS011;32064;49.310;8.646;2022-08-14T12:20:30;1.48;;;1.38;;
19735;SDS011;32064;49.310;8.646;2022-08-14T12:22:58;2.08;;;1.60;;
19735;SDS011;32064;49.310;8.646;2022-08-14T12:25:25;2.50;;;1.50;;
19735;SDS011;32064;49.310;8.646;2022-08-14T12:27:51;1.50;;;1.40;;
19735;SDS011;32064;49.310;8.646;2022-08-14T12:33:00;1.55;;;1.40;;
19735;SDS011;32064;49.310;8.646;2022-08-14T12:35:40;3.30;;;1.85;;
19735;SDS011;32064;49.310;8.646;2022-08-14T12:38:07;1.67;;;1.58;;
19735;SDS011;32064;49.310;8.646;2022-08-14T12:40:48;1.77;;;1.40;;
19735;SDS011;32064;49.310;8.646;2022-08-14T12:43:15;1.40;;;1.30;;
19735;SDS011;32064;49.310;8.646;2022-08-14T12:45:50;4.55;;;1.65;;
19735;SDS011;32064;49.310;8.646;2022-08-14T12:48:20;1.40;;;1.30;;
19735;SDS011;32064;49.310;8.646;2022-08-14T12:50:47;1.65;;;1.55;;
19735;SDS011;32064;49.310;8.646;2022-08-14T12:53:16;1.58;;;1.40;;
19735;SDS011;32064;49.310;8.646;2022-08-14T12:55:43;1.63;;;1.52;;
19735;SDS011;32064;49.310;8.646;2022-08-14T12:58:09;2.97;;;1.35;;
19735;SDS011;32064;49.310;8.646;2022-08-14T13:00:36;2.38;;;1.60;;
19735;SDS011;32064;49.310;8.646;2022-08-14T13:03:21;1.40;;;1.30;;
19735;SDS011;32064;49.310;8.646;2022-08-14T13:05:47;2.67;;;1.70;;
19735;SDS011;32064;49.310;8.646;2022-08-14T13:08:12;2.72;;;1.40;;
19735;SDS011;32064;49.310;8.646;2022-08-14T13:10:38;1.70;;;1.60;;
19735;SDS011;32064;49.310;8.646;2022-08-14T13:13:03;1.60;;;1.50;;
19735;SDS011;32064;49.310;8.646;2022-08-14T13:15:33;1.50;;;1.40;;
19735;SDS011;32064;49.310;8.646;2022-08-14T13:17:59;1.42;;;1.33;;
19735;SDS011;32064;49.310;8.646;2022-08-14T13:20:28;8.52;;;1.73;;
19735;SDS011;32064;49.310;8.646;2022-08-14T13:22:55;1.48;;;1.38;;
19735;SDS011;32064;49.310;8.646;2022-08-14T13:25:24;1.73;;;1.58;;
19735;SDS011;32064;49.310;8.646;2022-08-14T13:27:54;1.58;;;1.48;;
19735;SDS011;32064;49.310;8.646;2022-08-14T13:30:24;1.55;;;1.23;;
19735;SDS011;32064;49.310;8.646;2022-08-14T13:32:52;1.95;;;1.80;;
19735;SDS011;32064;49.310;8.646;2022-08-14T13:35:19;3.33;;;1.45;;
19735;SDS011;32064;49.310;8.646;2022-08-14T13:37:45;1.40;;;1.30;;
19735;SDS011;32064;49.310;8.646;2022-08-14T13:40:14;3.17;;;1.70;;
19735;SDS011;32064;49.310;8.646;2022-08-14T13:42:45;2.03;;;1.83;;
19735;SDS011;32064;49.310;8.646;2022-08-14T13:45:12;1.55;;;1.42;;
19735;SDS011;32064;49.310;8.646;2022-08-14T13:47:39;1.90;;;1.55;;
19735;SDS011;32064;49.310;8.646;2022-08-14T13:50:07;1.63;;;1.42;;
19735;SDS011;32064;49.310;8.646;2022-08-14T13:52:40;2.47;;;1.48;;
19735;SDS011;32064;49.310;8.646;2022-08-14T13:55:06;3.78;;;1.90;;
19735;SDS011;32064;49.310;8.646;2022-08-14T13:57:32;1.35;;;1.25;;
19735;SDS011;32064;49.310;8.646;2022-08-14T14:00:04;2.20;;;1.90;;
19735;SDS011;32064;49.310;8.646;2022-08-14T14:02:39;3.83;;;1.63;;
19735;SDS011;32064;49.310;8.646;2022-08-14T14:05:13;1.60;;;1.42;;
19735;SDS011;32064;49.310;8.646;2022-08-14T14:07:43;10.00;;;1.40;;
19735;SDS011;32064;49.310;8.646;2022-08-14T14:10:11;1.55;;;1.45;;
19735;SDS011;32064;49.310;8.646;2022-08-14T14:12:37;1.88;;;1.50;;
19735;SDS011;32064;49.310;8.646;2022-08-14T14:15:07;1.40;;;1.30;;
19735;SDS011;32064;49.310;8.646;2022-08-14T14:17:35;1.88;;;1.70;;
19735;SDS011;32064;49.310;8.646;2022-08-14T14:20:03;1.80;;;1.70;;
19735;SDS011;32064;49.310;8.646;2022-08-14T14:22:31;1.98;;;1.70;;
19735;SDS011;32064;49.310;8.646;2022-08-14T14:24:56;1.58;;;1.48;;
19735;SDS011;32064;49.310;8.646;2022-08-14T14:27:22;1.70;;;1.42;;
19735;SDS011;32064;49.310;8.646;2022-08-14T14:29:51;1.60;;;1.30;;
19735;SDS011;32064;49.310;8.646;2022-08-14T14:32:21;4.30;;;1.65;;
19735;SDS011;32064;49.310;8.646;2022-08-14T14:34:52;1.42;;;1.33;;
19735;SDS011;32064;49.310;8.646;2022-08-14T14:37:18;2.22;;;1.50;;
19735;SDS011;32064;49.310;8.646;2022-08-14T14:39:45;1.60;;;1.50;;
19735;SDS011;32064;49.310;8.646;2022-08-14T14:42:14;2.33;;;1.60;;
19735;SDS011;32064;49.310;8.646;2022-08-14T14:44:42;1.98;;;1.50;;
19735;SDS011;32064;49.310;8.646;2022-08-14T14:47:11;2.28;;;1.17;;
19735;SDS011;32064;49.310;8.646;2022-08-14T14:49:41;1.83;;;1.40;;
19735;SDS011;32064;49.310;8.646;2022-08-14T14:52:07;1.33;;;1.23;;
19735;SDS011;32064;49.310;8.646;2022-08-14T14:54:34;1.60;;;1.50;;
19735;SDS011;32064;49.310;8.646;2022-08-14T14:57:03;3.08;;;1.60;;
19735;SDS011;32064;49.310;8.646;2022-08-14T14:59:30;2.92;;;1.55;;
19735;SDS011;32064;49.310;8.646;2022-08-14T15:02:01;1.83;;;1.40;;
19735;SDS011;32064;49.310;8.646;2022-08-14T15:04:34;1.80;;;1.52;;
19735;SDS011;32064;49.310;8.646;2022-08-14T15:07:01;1.33;;;1.23;;
19735;SDS011;32064;49.310;8.646;2022-08-14T15:09:27;1.58;;;1.48;;
19735;SDS011;32064;49.310;8.646;2022-08-14T15:11:53;1.40;;;1.30;;
19735;SDS011;32064;49.310;8.646;2022-08-14T15:14:19;4.25;;;1.77;;
19735;SDS011;32064;49.310;8.646;2022-08-14T15:16:45;2.20;;;1.75;;
19735;SDS011;32064;49.310;8.646;2022-08-14T15:19:11;3.00;;;1.98;;
19735;SDS011;32064;49.310;8.646;2022-08-14T15:21:37;1.65;;;1.33;;
19735;SDS011;32064;49.310;8.646;2022-08-14T15:24:03;2.25;;;1.40;;